createdAt,value
2022-11-21T00:01:18.254Z,18.57
2022-11-21T00:03:45.339Z,16.97
2022-11-21T00:06:12.238Z,17.20
2022-11-21T00:08:39.052Z,17.50
2022-11-21T00:11:05.823Z,16.40
2022-11-21T00:13:35.654Z,17.33
2022-11-21T00:16:07.650Z,15.63
2022-11-21T00:18:35.511Z,17.87
2022-11-21T00:21:14.045Z,15.83
2022-11-21T00:23:40.790Z,16.37
2022-11-21T00:26:09.506Z,14.77
2022-11-21T00:28:36.531Z,15.33
2022-11-21T00:31:04.336Z,15.13
2022-11-21T00:33:31.965Z,15.77
2022-11-21T00:35:58.777Z,15.47
2022-11-21T00:38:27.048Z,15.60
2022-11-21T00:40:53.737Z,14.33
2022-11-21T00:43:20.432Z,14.60
2022-11-21T00:45:47.172Z,15.77
2022-11-21T00:48:13.929Z,15.93
2022-11-21T00:50:40.703Z,16.10
2022-11-21T00:53:07.449Z,14.80
2022-11-21T00:55:34.254Z,14.50
2022-11-21T00:58:01.015Z,14.83
2022-11-21T01:00:27.796Z,14.40
2022-11-21T01:02:54.578Z,14.10
2022-11-21T01:05:21.327Z,14.73
2022-11-21T01:07:51.082Z,14.60
2022-11-21T01:10:17.916Z,14.63
2022-11-21T01:12:45.367Z,15.33
2022-11-21T01:15:12.236Z,15.17
2022-11-21T01:17:38.943Z,13.90
2022-11-21T01:20:07.065Z,14.50
2022-11-21T01:22:33.862Z,14.43
2022-11-21T01:25:00.610Z,14.03
2022-11-21T01:27:27.377Z,14.50
2022-11-21T01:29:54.207Z,14.13
2022-11-21T01:32:21.011Z,14.67
2022-11-21T01:34:47.768Z,14.40
2022-11-21T01:37:14.518Z,14.57
2022-11-21T01:39:41.247Z,14.20
2022-11-21T01:42:12.373Z,14.60
2022-11-21T01:44:51.267Z,14.67
2022-11-21T01:47:19.094Z,14.20
2022-11-21T01:49:47.145Z,14.33
2022-11-21T01:52:21.695Z,13.80
2022-11-21T01:54:51.950Z,14.00
2022-11-21T01:57:28.473Z,13.47
2022-11-21T02:00:21.537Z,12.93
2022-11-21T02:02:53.573Z,12.63
2022-11-21T02:05:25.146Z,11.67
2022-11-21T02:07:55.369Z,9.87
2022-11-21T02:10:23.000Z,10.87
2022-11-21T02:12:55.295Z,10.53
2022-11-21T02:15:25.494Z,10.77
2022-11-21T02:17:52.819Z,11.80
2022-11-21T02:20:24.603Z,12.07
2022-11-21T02:23:06.001Z,11.93
2022-11-21T02:25:41.791Z,12.57
2022-11-21T02:28:12.231Z,12.67
2022-11-21T02:30:41.388Z,11.77
2022-11-21T02:33:09.033Z,11.90
2022-11-21T02:35:35.840Z,10.73
2022-11-21T02:38:08.030Z,11.37
2022-11-21T02:40:39.024Z,11.67
2022-11-21T02:43:22.494Z,11.33
2022-11-21T02:45:49.404Z,10.33
2022-11-21T02:48:16.230Z,10.83
2022-11-21T02:50:45.380Z,11.33
2022-11-21T02:53:15.081Z,11.23
2022-11-21T02:55:42.760Z,10.30
2022-11-21T02:58:09.510Z,10.00
2022-11-21T03:00:38.024Z,10.70
2022-11-21T03:03:05.007Z,11.27
2022-11-21T03:05:32.161Z,10.30
2022-11-21T03:07:58.917Z,10.57
2022-11-21T03:10:25.655Z,10.87
2022-11-21T03:13:00.757Z,10.83
2022-11-21T03:15:30.416Z,11.37
2022-11-21T03:17:57.878Z,10.90
2022-11-21T03:20:25.036Z,11.17
2022-11-21T03:22:53.462Z,10.43
2022-11-21T03:25:20.675Z,11.77
2022-11-21T03:27:50.448Z,12.67
2022-11-21T03:30:17.324Z,11.63
2022-11-21T03:32:44.175Z,12.57
2022-11-21T03:35:10.883Z,12.27
2022-11-21T03:37:37.684Z,11.57
2022-11-21T03:40:05.099Z,11.87
2022-11-21T03:42:31.781Z,11.73
2022-11-21T03:44:58.559Z,11.73
2022-11-21T03:47:27.351Z,11.07
2022-11-21T03:49:54.181Z,10.80
2022-11-21T03:52:21.120Z,10.80
2022-11-21T03:54:47.820Z,11.37
2022-11-21T03:57:14.661Z,11.53
2022-11-21T03:59:41.406Z,11.70
2022-11-21T04:02:08.342Z,11.77
2022-11-21T04:04:35.073Z,11.43
2022-11-21T04:07:01.882Z,11.00
2022-11-21T04:09:28.630Z,11.73
2022-11-21T04:11:55.352Z,12.07
2022-11-21T04:14:22.059Z,11.07
2022-11-21T04:16:48.895Z,11.60
2022-11-21T04:19:15.686Z,11.90
2022-11-21T04:21:42.453Z,11.87
2022-11-21T04:24:09.390Z,11.80
2022-11-21T04:26:36.195Z,12.57
2022-11-21T04:29:02.960Z,12.23
2022-11-21T04:31:29.732Z,11.80
2022-11-21T04:33:56.613Z,11.97
2022-11-21T04:36:23.498Z,11.63
2022-11-21T04:38:50.265Z,12.63
2022-11-21T04:41:17.010Z,12.33
2022-11-21T04:43:43.770Z,11.73
2022-11-21T04:46:10.608Z,13.17
2022-11-21T04:48:37.428Z,12.47
2022-11-21T04:51:04.259Z,12.20
2022-11-21T04:53:31.122Z,12.33
2022-11-21T04:55:57.982Z,12.40
2022-11-21T04:58:24.847Z,11.77
2022-11-21T05:00:51.988Z,12.03
2022-11-21T05:03:18.918Z,12.33
2022-11-21T05:05:46.296Z,11.90
2022-11-21T05:08:13.098Z,12.13
2022-11-21T05:10:58.546Z,12.70
2022-11-21T05:13:25.390Z,12.17
2022-11-21T05:15:57.398Z,12.47
2022-11-21T05:18:24.531Z,12.50
2022-11-21T05:20:51.306Z,13.00
2022-11-21T05:23:18.014Z,13.33
2022-11-21T05:25:44.766Z,13.10
2022-11-21T05:28:11.545Z,13.77
2022-11-21T05:30:38.311Z,12.93
2022-11-21T05:33:05.348Z,13.10
2022-11-21T05:35:32.450Z,12.07
2022-11-21T05:37:59.659Z,13.10
2022-11-21T05:40:26.497Z,13.50
2022-11-21T05:43:11.834Z,11.87
2022-11-21T05:45:39.285Z,12.80
2022-11-21T05:48:07.983Z,12.87
2022-11-21T05:50:36.452Z,13.17
2022-11-21T05:53:06.263Z,13.27
2022-11-21T05:55:35.881Z,13.27
2022-11-21T05:58:02.804Z,14.03
2022-11-21T06:00:29.788Z,12.50
2022-11-21T06:03:15.417Z,13.63
2022-11-21T06:05:42.185Z,13.07
2022-11-21T06:08:09.035Z,13.40
2022-11-21T06:10:36.021Z,14.27
2022-11-21T06:13:03.393Z,14.53
2022-11-21T06:15:30.383Z,14.83
2022-11-21T06:17:59.872Z,14.53
2022-11-21T06:20:26.688Z,14.73
2022-11-21T06:22:53.576Z,15.53
2022-11-21T06:25:20.351Z,14.30
2022-11-21T06:27:47.120Z,16.27
2022-11-21T06:30:19.035Z,15.87
2022-11-21T06:32:48.728Z,15.70
2022-11-21T06:35:15.562Z,16.93
2022-11-21T06:37:42.383Z,15.40
2022-11-21T06:40:09.940Z,16.87
2022-11-21T06:42:36.678Z,16.17
2022-11-21T06:45:03.869Z,17.47
2022-11-21T06:47:34.945Z,16.20
2022-11-21T06:50:01.779Z,16.30
2022-11-21T06:52:28.577Z,17.47
2022-11-21T06:54:55.371Z,16.83
2022-11-21T06:57:22.159Z,18.07
2022-11-21T06:59:48.946Z,18.00
2022-11-21T07:02:16.132Z,18.97
2022-11-21T07:04:43.015Z,18.70
2022-11-21T07:07:09.888Z,18.73
2022-11-21T07:09:36.908Z,17.97
2022-11-21T07:12:22.795Z,19.37
2022-11-21T07:14:49.527Z,19.13
2022-11-21T07:17:16.433Z,18.47
2022-11-21T07:19:43.445Z,19.20
2022-11-21T07:22:10.220Z,20.20
2022-11-21T07:24:37.026Z,19.33
2022-11-21T07:27:03.940Z,19.57
2022-11-21T07:29:31.128Z,20.37
2022-11-21T07:31:58.047Z,18.33
2022-11-21T07:34:24.857Z,19.33
2022-11-21T07:36:51.608Z,19.47
2022-11-21T07:39:18.432Z,18.87
2022-11-21T07:41:45.284Z,19.03
2022-11-21T07:44:12.107Z,19.17
2022-11-21T07:46:38.855Z,19.93
2022-11-21T07:49:05.605Z,19.27
2022-11-21T07:51:33.028Z,19.33
2022-11-21T07:54:02.816Z,19.77
2022-11-21T07:56:29.674Z,19.17
2022-11-21T07:58:56.728Z,20.07
2022-11-21T08:01:23.575Z,21.37
2022-11-21T08:03:50.364Z,20.17
2022-11-21T08:06:17.303Z,21.27
2022-11-21T08:08:44.686Z,20.23
2022-11-21T08:11:11.778Z,21.60
2022-11-21T08:13:38.538Z,19.83
2022-11-21T08:16:05.702Z,19.00
2022-11-21T08:18:33.022Z,20.40
2022-11-21T08:21:04.259Z,20.87
2022-11-21T08:23:32.012Z,20.97
2022-11-21T08:25:59.225Z,20.40
2022-11-21T08:28:26.052Z,18.47
2022-11-21T08:30:52.999Z,20.40
2022-11-21T08:33:19.745Z,19.37
2022-11-21T08:35:46.642Z,19.53
2022-11-21T08:38:13.368Z,18.27
2022-11-21T08:40:40.445Z,16.80
2022-11-21T08:43:09.407Z,17.57
2022-11-21T08:45:37.730Z,16.13
2022-11-21T08:48:08.940Z,16.40
2022-11-21T08:50:35.722Z,16.27
2022-11-21T08:53:03.223Z,17.00
2022-11-21T08:55:31.156Z,14.43
2022-11-21T08:58:01.013Z,15.50
2022-11-21T09:00:27.922Z,15.60
2022-11-21T09:02:54.699Z,15.10
2022-11-21T09:05:23.566Z,15.83
2022-11-21T09:07:57.477Z,14.07
2022-11-21T09:10:31.828Z,15.57
2022-11-21T09:12:59.938Z,14.60
2022-11-21T09:15:50.010Z,14.77
2022-11-21T09:18:16.749Z,14.90
2022-11-21T09:20:45.109Z,15.20
2022-11-21T09:23:15.011Z,15.47
2022-11-21T09:25:42.413Z,14.67
2022-11-21T09:28:11.180Z,13.07
2022-11-21T09:30:38.403Z,14.47
2022-11-21T09:33:07.228Z,13.33
2022-11-21T09:35:34.510Z,13.93
2022-11-21T09:38:01.302Z,14.03
2022-11-21T09:40:30.404Z,14.90
2022-11-21T09:43:18.511Z,13.90
2022-11-21T09:45:55.067Z,14.43
2022-11-21T09:48:49.874Z,14.93
2022-11-21T09:51:20.126Z,14.30
2022-11-21T09:54:19.944Z,13.73
2022-11-21T09:56:48.370Z,14.33
2022-11-21T09:59:29.773Z,14.83
2022-11-21T10:01:57.425Z,13.10
2022-11-21T10:04:25.988Z,14.13
2022-11-21T10:07:06.794Z,14.90
2022-11-21T10:10:07.924Z,13.67
2022-11-21T10:12:58.775Z,13.70
2022-11-21T10:15:43.460Z,13.40
2022-11-21T10:18:42.703Z,14.30
2022-11-21T10:21:24.269Z,14.57
2022-11-21T10:24:04.674Z,13.80
2022-11-21T10:26:52.316Z,14.37
2022-11-21T10:29:26.314Z,12.63
2022-11-21T10:31:58.156Z,12.43
2022-11-21T10:34:35.181Z,13.13
2022-11-21T10:37:28.164Z,12.03
2022-11-21T10:39:56.804Z,12.40
2022-11-21T10:42:38.810Z,11.73
2022-11-21T10:45:18.797Z,10.77
2022-11-21T10:47:48.143Z,11.63
2022-11-21T10:50:33.122Z,11.90
2022-11-21T10:53:27.455Z,11.97
2022-11-21T10:56:03.386Z,11.63
2022-11-21T10:58:41.331Z,12.37
2022-11-21T11:01:36.825Z,12.60
2022-11-21T11:06:56.789Z,12.37
2022-11-21T11:09:29.628Z,12.27
2022-11-21T11:12:21.695Z,12.33
2022-11-21T11:14:56.203Z,12.00
2022-11-21T11:17:34.178Z,11.77
2022-11-21T11:20:28.372Z,12.47
2022-11-21T11:22:55.355Z,11.93
2022-11-21T11:25:23.704Z,12.33
2022-11-21T11:27:50.588Z,12.10
2022-11-21T11:30:19.165Z,11.40
2022-11-21T11:32:45.895Z,11.20
2022-11-21T11:35:12.863Z,11.40
2022-11-21T11:37:47.067Z,12.57
2022-11-21T11:40:20.363Z,11.73
2022-11-21T11:43:44.055Z,11.87
2022-11-21T11:46:52.130Z,11.80
2022-11-21T11:50:00.591Z,10.93
2022-11-21T11:52:33.899Z,10.47
2022-11-21T11:55:05.417Z,10.03
2022-11-21T11:57:35.211Z,11.47
2022-11-21T12:00:21.977Z,11.07
2022-11-21T12:03:08.384Z,10.93
2022-11-21T12:05:37.682Z,10.93
2022-11-21T12:08:41.355Z,9.53
2022-11-21T12:11:47.291Z,10.53
2022-11-21T12:15:10.800Z,9.53
2022-11-21T12:17:56.388Z,9.37
2022-11-21T12:20:35.128Z,10.07
2022-11-21T12:23:02.990Z,9.67
2022-11-21T12:25:34.191Z,9.67
2022-11-21T12:28:01.425Z,9.90
2022-11-21T12:30:52.368Z,9.90
2022-11-21T12:33:23.988Z,9.90
2022-11-21T12:36:16.255Z,9.43
2022-11-21T12:38:57.070Z,10.87
2022-11-21T12:41:46.079Z,10.67
2022-11-21T12:44:29.985Z,12.57
2022-11-21T12:47:24.152Z,12.40
2022-11-21T12:50:26.208Z,11.10
2022-11-21T12:53:21.792Z,12.07
2022-11-21T12:56:01.435Z,11.83
2022-11-21T12:58:36.989Z,13.30
2022-11-21T13:01:20.839Z,15.17
2022-11-21T13:03:54.757Z,14.57
2022-11-21T13:06:26.098Z,15.63
2022-11-21T13:08:56.030Z,16.47
2022-11-21T13:11:44.740Z,16.33
2022-11-21T13:14:27.286Z,16.87
2022-11-21T13:17:24.603Z,15.97
2022-11-21T13:20:14.441Z,15.90
2022-11-21T13:22:41.473Z,15.83
2022-11-21T13:25:30.041Z,21.93
2022-11-21T13:28:19.903Z,15.60
2022-11-21T13:30:51.901Z,15.87
2022-11-21T13:33:39.824Z,15.07
2022-11-21T13:36:09.979Z,15.53
2022-11-21T13:38:52.948Z,16.97
2022-11-21T13:41:53.321Z,15.90
2022-11-21T13:44:46.971Z,16.27
2022-11-21T13:47:26.046Z,16.10
2022-11-21T13:50:20.265Z,15.97
2022-11-21T13:53:22.084Z,14.97
2022-11-21T13:56:11.979Z,15.90
2022-11-21T13:59:15.148Z,16.37
2022-11-21T14:01:54.477Z,16.03
2022-11-21T14:04:53.790Z,15.40
2022-11-21T14:07:33.891Z,16.53
2022-11-21T14:10:17.889Z,15.60
2022-11-21T14:12:49.388Z,15.47
2022-11-21T14:15:24.818Z,16.33
2022-11-21T14:17:55.771Z,15.20
2022-11-21T14:20:34.430Z,15.57
2022-11-21T14:23:18.573Z,15.10
2022-11-21T14:25:51.244Z,15.17
2022-11-21T14:28:30.242Z,15.03
2022-11-21T14:31:08.892Z,14.53
2022-11-21T14:33:37.703Z,15.43
2022-11-21T14:36:07.569Z,14.90
2022-11-21T14:39:13.990Z,15.70
2022-11-21T14:41:39.137Z,17.07
2022-11-21T14:44:07.821Z,15.37
2022-11-21T14:46:36.114Z,14.53
2022-11-21T14:49:18.039Z,14.23
2022-11-21T14:51:52.845Z,14.77
2022-11-21T14:54:23.239Z,14.67
2022-11-21T14:57:00.304Z,14.77
2022-11-21T14:59:34.788Z,14.47
2022-11-21T15:02:24.650Z,13.90
2022-11-21T15:04:54.663Z,14.90
2022-11-21T15:07:30.087Z,14.03
2022-11-21T15:10:28.814Z,15.00
2022-11-21T15:12:56.078Z,15.30
2022-11-21T15:15:33.307Z,15.83
2022-11-21T15:20:55.440Z,14.97
2022-11-21T15:23:30.714Z,15.83
2022-11-21T15:26:01.257Z,16.27
2022-11-21T15:28:29.743Z,16.03
2022-11-21T15:31:20.539Z,16.60
2022-11-21T15:37:17.416Z,16.60
2022-11-21T15:39:46.302Z,15.63
2022-11-21T15:42:31.809Z,15.90
2022-11-21T15:45:20.442Z,16.10
2022-11-21T15:47:48.400Z,17.67
2022-11-21T15:50:16.097Z,17.60
2022-11-21T15:52:49.984Z,16.80
2022-11-21T15:55:31.448Z,18.07
2022-11-21T15:57:15.012Z,16.27
2022-11-21T15:57:58.440Z,18.60
2022-11-21T16:00:25.227Z,19.13
2022-11-21T16:02:52.882Z,34.67
2022-11-21T16:05:19.647Z,26.27
2022-11-21T16:07:48.852Z,24.10
2022-11-21T16:10:21.431Z,20.53
2022-11-21T16:12:52.873Z,21.13
2022-11-21T16:15:19.743Z,21.80
2022-11-21T16:17:47.668Z,22.50
2022-11-21T16:20:15.257Z,23.47
2022-11-21T16:22:47.116Z,23.97
2022-11-21T16:25:14.579Z,23.00
2022-11-21T16:27:41.436Z,23.33
2022-11-21T16:30:08.869Z,23.23
2022-11-21T16:32:35.893Z,21.80
2022-11-21T16:35:03.441Z,22.60
2022-11-21T16:37:33.356Z,20.57
2022-11-21T16:40:00.207Z,21.87
2022-11-21T16:42:27.185Z,23.70
2022-11-21T16:44:54.043Z,23.60
2022-11-21T16:47:20.985Z,24.30
2022-11-21T16:49:49.141Z,23.93
2022-11-21T16:52:18.185Z,26.60
2022-11-21T16:54:48.189Z,26.23
2022-11-21T16:57:15.015Z,25.87
2022-11-21T16:59:41.781Z,25.67
2022-11-21T17:02:12.061Z,24.30
2022-11-21T17:04:38.860Z,23.23
2022-11-21T17:07:05.903Z,23.93
2022-11-21T17:09:32.788Z,23.77
2022-11-21T17:11:59.692Z,24.17
2022-11-21T17:14:27.185Z,26.43
2022-11-21T17:16:56.290Z,24.27
2022-11-21T17:19:23.251Z,24.43
2022-11-21T17:21:50.015Z,24.77
2022-11-21T17:24:18.075Z,24.30
2022-11-21T17:26:47.918Z,25.90
2022-11-21T17:29:14.753Z,24.37
2022-11-21T17:31:42.216Z,24.73
2022-11-21T17:34:09.062Z,27.00
2022-11-21T17:36:35.979Z,25.27
2022-11-21T17:39:03.121Z,24.77
2022-11-21T17:41:30.010Z,27.27
2022-11-21T17:43:58.177Z,26.17
2022-11-21T17:46:25.933Z,24.73
2022-11-21T17:48:57.080Z,25.33
2022-11-21T17:51:34.478Z,25.03
2022-11-21T17:54:02.548Z,25.87
2022-11-21T17:56:31.896Z,25.20
2022-11-21T17:58:58.963Z,26.47
2022-11-21T18:01:26.038Z,25.20
2022-11-21T18:03:59.583Z,24.07
2022-11-21T18:06:38.221Z,23.23
2022-11-21T18:09:07.870Z,25.17
2022-11-21T18:11:39.953Z,25.57
2022-11-21T18:14:08.704Z,24.67
2022-11-21T18:16:36.099Z,25.93
2022-11-21T18:19:03.029Z,25.33
2022-11-21T18:21:31.855Z,24.10
2022-11-21T18:24:02.118Z,24.87
2022-11-21T18:26:31.698Z,24.90
2022-11-21T18:29:34.608Z,25.67
2022-11-21T18:31:47.379Z,28.03
2022-11-21T18:34:14.419Z,30.20
2022-11-21T18:36:41.448Z,29.13
2022-11-21T18:39:14.679Z,30.10
2022-11-21T18:41:42.851Z,34.53
2022-11-21T18:44:10.379Z,29.83
2022-11-21T18:46:38.886Z,27.20
2022-11-21T18:49:08.759Z,28.77
2022-11-21T18:51:36.663Z,28.80
2022-11-21T18:54:08.078Z,30.10
2022-11-21T18:56:37.194Z,28.77
2022-11-21T18:59:06.071Z,26.67
2022-11-21T19:01:34.558Z,27.43
2022-11-21T19:04:01.455Z,29.67
2022-11-21T19:06:28.717Z,27.70
2022-11-21T19:08:57.667Z,29.20
2022-11-21T19:11:26.627Z,25.97
2022-11-21T19:13:54.937Z,27.60
2022-11-21T19:16:27.225Z,24.63
2022-11-21T19:19:31.936Z,25.93
2022-11-21T19:21:42.789Z,26.23
2022-11-21T19:24:14.944Z,24.67
2022-11-21T19:26:43.310Z,25.93
2022-11-21T19:29:10.947Z,25.60
2022-11-21T19:31:44.582Z,26.00
2022-11-21T19:34:16.126Z,26.23
2022-11-21T19:36:43.619Z,23.93
2022-11-21T19:39:10.829Z,22.87
2022-11-21T19:41:37.779Z,25.37
2022-11-21T19:44:05.424Z,25.13
2022-11-21T19:46:37.586Z,25.03
2022-11-21T19:49:05.744Z,25.27
2022-11-21T19:51:42.231Z,26.00
2022-11-21T19:54:11.492Z,24.97
2022-11-21T19:56:38.491Z,25.90
2022-11-21T19:59:05.506Z,26.10
2022-11-21T20:01:34.510Z,26.47
2022-11-21T20:04:03.185Z,26.43
2022-11-21T20:06:39.167Z,25.50
2022-11-21T20:09:09.060Z,25.60
2022-11-21T20:11:37.207Z,25.97
2022-11-21T20:14:04.425Z,25.83
2022-11-21T20:16:35.337Z,24.97
2022-11-21T20:19:10.619Z,24.83
2022-11-21T20:21:38.676Z,25.40
2022-11-21T20:24:06.377Z,24.80
2022-11-21T20:26:34.716Z,24.33
2022-11-21T20:29:01.930Z,25.40
2022-11-21T20:31:31.732Z,25.47
2022-11-21T20:34:01.363Z,25.30
2022-11-21T20:36:30.114Z,24.17
2022-11-21T20:39:00.841Z,26.13
2022-11-21T20:41:29.928Z,22.93
2022-11-21T20:46:49.268Z,24.40
2022-11-21T20:49:16.897Z,24.13
2022-11-21T20:54:31.564Z,24.43
2022-11-21T20:56:58.704Z,23.13
2022-11-21T20:59:26.383Z,22.87
2022-11-21T21:01:53.360Z,23.33
2022-11-21T21:04:20.188Z,22.77
2022-11-21T21:06:47.034Z,23.13
2022-11-21T21:09:14.275Z,22.40
2022-11-21T21:11:56.697Z,22.37
2022-11-21T21:14:23.713Z,24.10
2022-11-21T21:16:50.876Z,21.77
2022-11-21T21:19:18.452Z,21.63
2022-11-21T21:21:45.924Z,21.83
2022-11-21T21:24:14.302Z,21.70
2022-11-21T21:26:46.005Z,26.87
2022-11-21T21:29:18.749Z,23.07
2022-11-21T21:31:51.162Z,21.10
2022-11-21T21:34:23.147Z,21.37
2022-11-21T21:36:51.317Z,21.67
2022-11-21T21:39:18.199Z,20.80
2022-11-21T21:41:46.712Z,22.80
2022-11-21T21:44:14.372Z,21.43
2022-11-21T21:46:41.502Z,22.13
2022-11-21T21:49:08.434Z,21.10
2022-11-21T21:51:37.311Z,21.37
2022-11-21T21:54:04.614Z,20.37
2022-11-21T21:56:31.490Z,21.10
2022-11-21T21:58:58.691Z,20.23
2022-11-21T22:01:32.651Z,21.13
2022-11-21T22:04:04.594Z,19.67
2022-11-21T22:06:34.398Z,19.70
2022-11-21T22:09:02.634Z,21.00
2022-11-21T22:11:31.948Z,19.83
2022-11-21T22:14:01.034Z,21.13
2022-11-21T22:16:28.170Z,21.13
2022-11-21T22:18:55.269Z,20.90
2022-11-21T22:21:32.394Z,21.13
2022-11-21T22:26:50.841Z,22.30
2022-11-21T22:29:17.604Z,22.53
2022-11-21T22:31:44.364Z,21.60
2022-11-21T22:34:13.795Z,22.23
2022-11-21T22:36:41.784Z,21.00
2022-11-21T22:39:09.248Z,20.80
2022-11-21T22:41:36.050Z,20.03
2022-11-21T22:44:02.934Z,19.70
2022-11-21T22:46:30.612Z,18.93
2022-11-21T22:48:58.303Z,18.90
2022-11-21T22:51:29.268Z,20.03
2022-11-21T22:53:56.866Z,20.33
2022-11-21T22:56:25.018Z,17.77
2022-11-21T22:58:52.162Z,20.03
2022-11-21T23:01:24.645Z,19.23
2022-11-21T23:03:52.752Z,19.07
2022-11-21T23:06:23.821Z,17.93
2022-11-21T23:08:51.901Z,19.20
2022-11-21T23:11:27.973Z,17.87
2022-11-21T23:13:56.554Z,17.93
2022-11-21T23:16:24.176Z,19.03
2022-11-21T23:18:55.520Z,18.90
2022-11-21T23:21:22.699Z,17.93
2022-11-21T23:23:49.656Z,18.53
2022-11-21T23:26:16.459Z,18.83
2022-11-21T23:28:43.506Z,18.43
2022-11-21T23:31:10.816Z,18.23
2022-11-21T23:33:37.560Z,18.00
2022-11-21T23:36:04.622Z,18.37
2022-11-21T23:38:31.610Z,17.70
2022-11-21T23:40:58.429Z,17.60
2022-11-21T23:43:25.165Z,17.60
2022-11-21T23:45:53.241Z,17.83
2022-11-21T23:48:20.915Z,17.10
2022-11-21T23:50:50.883Z,16.50
2022-11-21T23:53:18.248Z,15.43
2022-11-21T23:55:45.480Z,8.10
2022-11-21T23:58:12.716Z,8.40
